ELW weather

Public forecast

Using degrees Fahrenheit for public forecast. Weather courtesy of forecast.io.

Closest aviation weather report (METAR) to Ellamar Seaplane Base

Closest report is Valdez Pioneer Field, 19.6 nm (36.3 km) NE. Retrieved 2020/08/14 19:56 UTC (10 minutes ago):

PAVD 141956Z 22005KT 10SM SCT070 SCT130 BKN250 16/12 A2986

Closest aviation forecast (TAF) to Ellamar Seaplane Base

Closest forecast is Valdez Pioneer Field, 19.6 nm (36.3 km) NE. Retrieved 2020/08/14 18:30 UTC (2 hours ago):

TAF PAVD 141728Z 1418/1518 05005KT P6SM VCSH FEW015 SCT070 FM142200 02010G22KT P6SM SCT070 BKN120 FM150300 02016G30KT P6SM SCT070 FM150600 02022G40KT P6SM FEW070 SCT140 AMD LTD TO CLD VIS AND WIND